LEBA/ODB METAR and TAF weather

Enter ICAO airport designator
Station Type Date Time Source
LEBA METAR 2020/04/02 00:00 UTC NOAA

LEBA 020000Z AUTO 10004KT 9999 SCT036 10/08 Q1013


Station Type Date Time Source
LEBA Decoded METAR 2020/04/02 00:00 UTC NOAA

Cordoba / Aeropuerto, Spain (LEBA) 37-51N 004-51W 92M
Apr 01, 2020 - 08:00 PM EDT / 2020.04.02 0000 UTC
Wind: from the E (100 degrees) at 5 MPH (4 KT):0
Visibility: greater than 7 mile(s):0
Sky conditions: partly cloudy
Temperature: 50 F (10 C)
Dew Point: 46 F (8 C)
Relative Humidity: 87%
Pressure (altimeter): 29.91 in. Hg (1013 hPa)
ob: LEBA 020000Z AUTO 10004KT 9999 SCT036 10/08 Q1013
cycle: 0

Station Type Date Time Source
LEBA TAF 2015/01/24 09:27 UTC NOAA

TAF TAF LEBA 240800Z 2409/2421 VRB02KT CAVOK

Example: see airport list